Date,TemperatureHighF,TemperatureAvgF,TemperatureLowF,DewpointHighF,DewpointAvgF,DewpointLowF,HumidityHigh,HumidityAvg,HumidityLow,PressureMaxIn,PressureMinIn,WindSpeedMaxMPH,WindSpeedAvgMPH,GustSpeedMaxMPH,PrecipitationSumIn
2013-1-1,42.2,32.0,26.7,39.5,31.0,26.2,99,96,85,30.47,30.33,6,1,0,0.00
2013-1-2,43.3,35.2,32.3,30.3,26.7,22.6,88,71,56,30.33,30.17,10,4,0,0.01
2013-1-3,45.2,34.2,28.7,32.5,24.7,20.4,97,69,46,30.18,30.08,10,3,0,0.14
2013-1-4,47.0,38.6,33.4,46.7,38.2,32.6,99,98,97,30.31,30.15,6,1,0,0.06
2013-1-5,39.4,38.2,36.7,37.9,35.7,33.2,97,91,82,30.20,30.10,8,2,0,0.14
2013-1-6,41.9,38.6,36.6,41.6,38.1,35.9,99,98,97,30.17,29.99,3,0,0,0.41
2013-1-7,46.0,41.4,37.4,46.0,41.2,37.1,100,99,99,30.15,29.82,6,1,0,1.35
2013-1-8,47.5,42.2,38.3,47.5,42.1,38.0,100,100,99,30.16,29.74,8,2,0,0.90
2013-1-9,47.0,37.2,32.3,47.0,37.2,32.1,100,100,99,29.93,29.66,7,1,0,1.12
2013-1-10,32.6,31.7,29.6,32.6,31.7,29.6,100,100,99,30.08,29.92,1,0,0,0.04
2013-1-11,35.7,29.9,25.1,35.7,29.8,24.9,100,100,99,30.30,30.08,2,0,0,0.29
2013-1-12,36.3,26.5,23.0,34.9,25.8,22.3,99,97,93,30.41,30.29,2,0,0,0.09
2013-1-13,35.5,26.3,20.6,33.1,25.2,19.4,98,96,89,30.47,30.40,2,0,0,0.08
2013-1-14,32.4,30.4,28.0,31.9,30.0,27.5,99,98,98,30.54,30.44,2,0,0,0.04
2013-1-15,41.1,32.8,29.1,39.3,32.1,28.6,99,97,88,30.68,30.54,2,0,0,0.10
2013-1-16,42.6,31.1,25.9,39.1,30.2,25.4,99,97,86,30.65,30.49,2,0,0,0.04
2013-1-17,45.1,32.4,26.5,41.3,31.6,26.0,99,97,84,30.50,30.27,2,0,0,0.01
2013-1-18,38.0,31.1,27.4,36.4,30.4,26.9,99,97,91,30.32,30.23,3,0,0,0.01
2013-1-19,38.4,27.8,21.0,35.5,26.9,20.0,98,96,88,30.36,30.30,2,0,0,0.00
2013-1-20,45.1,28.4,21.4,40.9,27.3,20.4,99,95,81,30.36,30.24,3,0,0,0.01
2013-1-21,42.6,27.2,20.4,38.7,25.9,19.4,99,95,80,30.24,30.10,5,1,0,0.01
2013-1-22,40.3,33.3,24.0,36.7,30.2,23.0,98,89,67,30.13,29.88,6,1,0,0.00
2013-1-23,41.4,37.3,35.8,36.9,33.6,29.3,99,87,67,30.12,29.83,7,1,0,0.49
2013-1-24,41.9,38.0,34.9,41.4,37.3,34.6,99,97,91,30.20,30.04,6,1,0,0.21
2013-1-25,47.8,40.9,36.0,47.5,40.5,35.5,99,98,96,30.05,29.92,5,0,0,0.12
2013-1-26,38.3,36.5,34.7,38.0,36.2,34.2,99,99,98,30.01,29.87,7,0,0,1.08
2013-1-27,38.8,36.8,34.8,38.7,36.6,34.5,100,99,99,30.04,29.97,5,1,0,0.51
2013-1-28,38.3,35.9,34.3,38.3,35.8,34.0,100,100,99,30.07,29.98,6,1,0,1.18
2013-1-29,42.4,40.1,38.3,42.4,40.1,38.3,100,100,100,30.32,30.07,5,1,0,1.33
2013-1-30,46.8,43.2,40.2,46.8,43.2,40.2,100,100,100,30.37,30.32,2,0,0,0.34
2013-1-31,45.4,43.8,43.2,45.4,43.8,43.2,100,100,100,30.38,30.30,5,0,0,0.23
2013-2-1,51.0,43.1,36.4,51.0,43.0,36.1,100,100,98,30.39,30.32,2,0,0,0.05
2013-2-2,45.2,36.9,31.4,45.2,36.6,31.2,100,99,97,30.37,30.24,3,0,0,0.00
2013-2-3,45.3,39.4,31.7,45.3,39.3,31.5,100,100,99,30.30,30.20,3,0,0,0.19
2013-2-4,48.0,42.5,39.9,48.0,42.2,39.9,100,99,95,30.20,29.87,6,0,0,0.00
2013-2-5,46.4,42.6,40.7,46.1,42.0,40.1,100,98,94,29.93,29.84,8,2,0,0.24
2013-2-6,44.7,41.5,39.9,42.3,40.1,38.7,98,95,86,30.04,29.79,9,3,0,0.05
2013-2-7,48.6,39.5,31.9,42.3,37.3,30.9,99,92,75,30.17,29.80,8,1,0,0.18
2013-2-8,42.5,35.1,29.2,40.7,34.0,28.7,99,96,86,30.28,30.17,2,0,0,0.00
2013-2-9,40.9,37.8,36.0,40.4,37.3,35.3,99,98,97,30.33,30.24,1,0,0,0.07
2013-2-10,47.8,37.3,30.2,45.3,36.3,29.7,99,96,86,30.35,30.30,3,0,0,0.01
2013-2-11,42.5,38.8,36.1,41.9,38.3,35.5,99,98,96,30.34,30.31,3,0,1,0.03
2013-2-12,45.0,41.9,37.2,45.0,41.6,36.7,100,99,97,30.40,30.28,6,1,0,0.03
2013-2-13,44.9,42.4,39.6,44.4,41.8,38.8,99,98,95,30.48,30.29,5,0,5,0.15
2013-2-14,48.1,42.8,39.7,46.7,42.2,38.9,99,97,91,30.55,30.48,2,0,0,0.10
2013-2-15,58.2,42.7,34.3,52.1,40.9,33.6,99,94,74,30.53,30.17,3,1,0,0.00
2013-2-16,43.6,41.0,37.9,43.3,40.6,37.2,99,98,96,30.19,30.11,6,1,0,0.56
2013-2-17,41.8,37.6,32.4,40.7,37.1,31.6,99,98,94,30.23,30.10,5,1,0,0.07
2013-2-18,43.3,36.4,30.9,41.1,35.3,30.4,99,96,87,30.10,29.75,3,0,0,0.01
2013-2-19,52.7,38.9,32.9,42.7,35.1,31.1,97,87,61,29.99,29.73,6,1,0,0.00
2013-2-20,42.3,37.1,34.3,40.2,36.0,33.3,98,96,87,30.03,29.99,3,0,0,0.03
2013-2-21,38.7,37.3,35.4,38.4,36.9,34.9,99,99,98,30.06,29.99,8,1,0,0.21
2013-2-22,41.8,38.2,34.6,41.1,37.7,33.8,99,98,94,30.03,29.67,10,3,0,0.33
2013-2-23,44.2,38.0,34.7,43.6,37.2,34.2,99,97,90,30.36,29.88,5,1,0,0.22
2013-2-24,43.2,38.8,35.2,40.9,37.6,34.4,99,95,89,30.36,29.96,8,1,0,0.01
2013-2-25,47.2,39.0,35.1,43.4,37.1,33.7,99,93,74,30.29,29.88,8,2,4,0.14
2013-2-26,45.3,38.8,32.7,40.3,35.7,31.7,98,89,72,30.34,30.19,6,1,0,0.01
2013-2-27,49.9,41.2,36.0,45.6,39.5,35.5,99,94,71,30.29,30.19,6,1,3,0.30
2013-2-28,48.8,41.9,38.6,48.8,41.5,38.1,100,99,98,30.33,30.18,10,2,0,0.43
2013-3-1,54.0,50.6,47.4,50.8,48.9,45.4,100,94,87,30.36,30.28,10,4,0,0.02
2013-3-2,54.1,48.5,45.7,48.7,45.8,43.9,95,90,79,30.28,30.08,8,1,0,0.00
2013-3-29,49.4,48.7,48.1,44.1,43.9,43.8,85,84,82,30.24,30.24,0,0,0,0.00
2013-3-30,72.3,57.6,41.4,51.3,45.8,38.4,91,67,40,30.25,30.08,0,0,0,0.00
2013-3-31,75.8,55.9,42.1,53.1,44.2,37.8,88,68,34,30.08,29.92,0,0,0,0.00
2013-4-1,66.8,52.7,43.1,52.9,45.6,39.0,93,78,56,30.16,29.97,0,0,0,0.00
2013-4-2,53.3,50.0,47.4,50.8,47.6,45.5,95,91,84,30.20,30.16,0,0,0,0.02
2013-4-3,68.1,53.9,44.7,53.2,46.7,43.4,96,79,48,30.18,29.95,0,0,0,0.00
2013-4-4,53.4,50.9,47.6,52.0,47.9,42.4,96,89,79,29.95,29.65,0,0,0,0.51
2013-4-5,52.8,49.7,46.5,50.7,48.1,45.1,96,94,88,29.88,29.74,0,0,0,0.58
2013-4-6,49.6,45.5,42.0,48.2,43.9,40.4,95,94,89,29.92,29.70,0,0,0,0.44
2013-4-7,46.2,42.2,39.5,44.8,40.8,38.2,95,95,94,29.88,29.49,0,0,0,1.29
2013-4-8,52.1,44.7,41.0,49.3,43.0,39.7,95,94,85,30.27,29.88,0,0,0,0.20
2013-4-9,53.1,47.2,41.1,48.4,44.1,39.5,95,89,78,30.34,30.18,0,0,0,0.00
2013-4-10,52.7,47.9,44.1,50.7,45.5,41.6,94,91,88,30.25,29.93,0,0,0,0.24
2013-4-11,52.2,45.4,38.4,48.3,42.0,36.0,93,88,72,30.29,30.18,0,0,0,0.16
2013-4-12,47.3,40.7,36.9,43.6,38.2,34.7,92,91,84,30.18,29.67,0,0,0,0.41
2013-4-13,47.8,40.5,34.7,45.6,38.4,32.6,93,92,91,29.98,29.74,0,0,0,0.40
2013-4-14,54.1,43.4,37.2,49.6,40.3,35.1,92,89,75,30.00,29.91,0,0,0,0.21
2013-4-15,53.4,43.5,36.8,48.0,40.0,34.1,91,88,74,30.17,29.94,0,0,0,0.11
2013-4-16,57.3,43.1,33.3,49.8,38.9,31.0,91,86,57,30.39,30.17,0,0,0,0.13
2013-4-17,64.6,47.6,35.0,48.2,40.0,32.4,90,77,43,30.45,30.39,0,0,0,0.00
2013-4-18,48.8,45.3,42.0,45.3,41.8,38.7,89,87,82,30.45,30.22,0,0,0,0.34
2013-4-19,54.0,49.1,46.0,50.8,45.9,42.7,89,89,88,30.21,30.06,0,0,0,0.99
2013-4-20,54.4,47.9,45.6,50.9,44.6,42.3,89,88,87,30.28,30.19,0,0,0,0.39
2013-4-21,54.6,45.9,39.1,50.8,42.3,35.8,88,87,77,30.36,30.22,0,0,0,0.37
2013-4-22,64.7,48.4,34.7,51.1,38.4,28.8,88,71,38,30.51,30.36,0,0,0,0.00
2013-4-23,67.8,49.9,35.6,46.4,38.3,32.1,88,68,33,30.42,30.25,0,0,0,0.00
2013-4-24,74.7,55.5,37.8,49.0,39.6,34.1,87,59,27,30.32,30.07,0,0,0,0.00
2013-4-25,78.4,59.3,41.3,49.2,41.7,35.2,81,55,27,30.15,30.04,0,0,0,0.00
2013-4-26,74.2,58.4,43.8,53.6,46.9,39.8,86,68,39,30.25,30.15,0,0,0,0.00
2013-4-27,53.9,51.7,49.2,47.0,43.8,38.5,85,75,58,30.23,30.15,0,0,0,0.15
2013-4-28,56.0,49.6,45.2,51.2,44.5,40.7,86,83,74,30.21,29.94,0,0,0,0.35
2013-4-29,60.4,47.3,39.1,46.8,38.3,33.3,86,72,43,30.15,29.91,0,0,0,0.07
2013-4-30,56.5,43.7,35.7,48.5,36.6,28.6,85,77,51,30.44,30.15,0,0,0,0.22
2013-5-1,69.7,50.9,32.5,47.4,37.8,28.5,85,64,34,30.57,30.44,0,0,0,0.00
2013-5-2,74.0,55.6,40.0,50.4,42.1,35.4,84,63,33,30.55,30.37,0,0,0,0.00
2013-5-3,76.7,58.2,41.6,54.5,45.2,37.1,84,64,41,30.40,30.24,0,0,0,0.00
2013-5-4,85.2,64.7,45.8,57.2,46.7,40.9,83,57,24,30.24,30.02,0,0,0,0.00
2013-5-5,88.6,68.9,50.8,55.6,48.2,41.3,73,51,24,30.02,29.80,0,0,0,0.00
2013-5-6,93.0,71.5,52.9,56.8,47.0,37.9,66,45,20,29.86,29.77,0,0,0,0.00
2013-5-7,81.1,63.7,52.4,59.3,51.1,43.5,82,65,39,30.00,29.83,0,0,0,0.00
2013-5-8,67.2,55.7,49.5,56.9,49.5,44.1,82,80,67,30.15,30.00,0,0,0,0.00
2013-5-9,79.7,60.5,47.8,60.9,50.9,41.9,81,72,47,30.22,30.13,0,0,0,0.00
2013-5-10,85.7,66.6,50.0,61.0,52.7,44.0,81,64,39,30.20,30.13,0,0,0,0.00
2013-5-11,87.5,68.5,55.7,59.5,53.3,47.6,80,61,34,30.19,30.01,0,0,0,0.00
2013-5-12,70.0,62.5,57.1,60.7,54.5,49.7,80,75,65,30.11,30.01,0,0,0,0.13
2013-5-13,61.7,54.8,45.9,55.4,48.1,40.7,83,78,74,30.19,29.93,0,0,0,0.38
2013-5-14,68.2,53.7,44.4,51.6,44.0,38.7,83,71,40,30.23,30.13,0,0,0,0.01
2013-5-15,71.7,55.2,43.1,52.6,44.8,38.0,82,70,43,30.13,30.02,0,0,0,0.09
2013-5-16,75.7,59.9,51.1,62.0,50.6,43.1,81,72,50,30.03,29.87,0,0,0,0.06
2013-5-17,60.3,55.2,51.5,54.0,48.4,43.5,81,78,73,30.06,29.95,0,0,0,0.12
2013-5-18,60.6,54.2,49.8,53.2,47.4,42.8,81,78,70,30.28,30.06,0,0,0,0.01
2013-5-19,69.4,54.8,49.3,57.9,47.2,42.1,79,76,59,30.41,30.28,0,0,0,0.03
2013-5-20,73.9,57.4,45.7,57.5,47.4,38.1,79,70,45,30.35,29.91,0,0,0,0.00
2013-5-21,58.6,50.2,45.8,51.7,42.7,38.0,79,75,71,29.90,29.78,0,0,0,0.59
2013-5-22,52.1,47.3,43.9,45.4,39.7,36.3,79,75,73,29.94,29.85,0,0,0,0.18
2013-5-23,59.3,48.5,41.8,52.2,41.4,34.6,80,76,72,30.02,29.92,0,0,0,0.08
2013-5-24,61.7,51.7,43.4,54.2,44.2,35.7,80,76,70,30.05,29.97,0,0,0,0.00
2013-5-25,66.1,54.2,48.2,53.6,45.9,40.0,79,74,55,30.05,29.98,0,0,0,0.02
2013-5-26,62.9,54.5,47.8,54.9,46.7,40.0,78,75,71,30.00,29.95,0,0,0,0.04
2013-5-27,61.0,55.0,49.7,53.0,46.1,40.5,76,72,69,29.98,29.73,0,0,0,0.24
2013-5-28,60.2,54.4,50.5,52.9,45.7,40.7,78,73,68,29.90,29.78,0,0,0,0.10
2013-5-29,56.9,52.1,49.3,49.2,42.9,39.5,76,71,68,29.97,29.68,0,0,0,0.47
2013-5-30,62.5,52.2,46.8,54.8,43.7,37.5,78,73,68,30.25,29.97,0,0,0,0.05
2013-5-31,66.8,54.9,47.3,57.4,46.0,39.3,78,72,61,30.34,30.25,0,0,0,0.00
2013-6-1,79.2,60.7,47.3,58.2,48.4,38.7,76,65,41,30.25,30.06,0,0,0,0.00
2013-6-2,74.6,58.9,52.3,57.4,48.3,41.6,75,68,49,30.10,30.06,0,0,0,0.04
2013-6-3,79.3,62.0,48.1,60.4,50.1,38.7,74,66,44,30.12,30.07,0,0,0,0.00
2013-6-4,87.2,67.1,49.0,62.2,52.1,39.4,72,60,37,30.14,30.04,0,0,0,0.00
2013-6-5,84.0,66.6,54.0,63.0,53.8,44.6,73,64,42,30.11,30.05,0,0,0,0.00
2013-6-6,85.0,66.8,51.6,64.2,51.6,41.9,72,59,34,30.06,30.03,0,0,0,0.00
2013-6-7,66.6,59.0,53.2,54.8,48.3,41.3,73,68,57,30.16,30.03,0,0,0,0.00
2013-6-8,71.0,58.9,50.0,56.7,48.4,41.0,73,68,57,30.19,30.12,0,0,0,0.00
2013-6-9,73.0,58.9,49.8,55.0,47.0,40.5,72,65,44,30.12,30.04,0,0,0,0.00
2013-6-10,74.7,58.8,47.1,55.5,46.2,38.2,72,64,38,30.05,29.89,0,0,0,0.00
2013-6-11,66.3,55.5,50.5,53.2,45.7,41.5,72,70,56,30.11,29.94,0,0,0,0.01
2013-6-12,69.0,57.0,49.9,53.5,45.1,40.4,72,65,44,30.15,30.11,0,0,0,0.33
2013-6-13,52.5,52.1,51.7,40.9,40.2,39.9,65,64,63,30.15,30.15,0,0,0,0.01
2013-6-14,71.1,56.0,51.4,56.6,45.3,40.4,71,67,54,30.25,30.07,0,0,0,0.00
2013-6-15,79.7,63.6,47.2,62.9,50.5,35.6,70,63,48,30.07,29.93,0,0,0,0.00
2013-6-16,78.3,65.3,53.5,62.9,51.9,41.3,69,62,51,30.10,30.00,0,0,0,0.06
2013-6-17,79.9,64.7,53.6,61.7,48.8,40.1,68,57,37,30.10,29.90,0,0,0,0.06
2013-6-18,73.0,62.0,55.1,57.6,48.1,40.5,69,61,46,29.99,29.89,0,0,0,0.00
2013-6-19,64.1,57.4,54.2,52.1,43.1,38.9,66,59,52,30.02,29.92,0,0,0,0.26
2013-6-20,55.9,53.8,51.9,40.8,36.4,34.3,57,52,50,30.12,29.97,0,0,0,1.59
2013-6-21,63.9,56.5,51.6,54.5,41.3,34.0,72,57,50,30.17,30.11,0,0,0,0.01
2013-6-22,78.9,64.6,50.2,62.4,49.2,32.1,72,58,45,30.14,29.87,0,0,0,0.00
2013-6-23,69.8,63.7,57.0,58.4,47.9,39.1,68,57,43,29.87,29.61,0,0,0,0.18
2013-6-24,63.9,60.1,56.1,52.1,38.8,32.9,67,46,39,29.72,29.60,0,0,0,0.24
2013-6-25,70.8,60.3,54.2,59.9,38.2,28.9,70,45,34,29.88,29.69,0,0,0,0.54
2013-6-26,69.0,61.1,55.2,57.5,35.5,26.5,69,39,29,30.10,29.87,0,0,0,0.07
2013-6-27,68.8,65.5,58.9,51.9,38.5,24.3,56,38,22,30.22,30.08,0,0,0,0.08
2013-6-28,87.9,72.4,59.8,71.6,49.2,16.6,68,47,17,30.21,30.07,0,0,0,0.00
2013-6-29,85.5,71.9,62.7,70.9,50.0,15.0,68,49,15,30.13,30.02,0,0,0,0.00
2013-6-30,94.0,76.7,61.4,73.6,53.3,5.9,66,47,10,30.04,29.88,0,0,0,0.00
2013-7-1,89.0,74.7,62.7,70.2,58.0,39.0,67,57,40,30.04,29.93,0,0,0,0.00
2013-7-2,83.3,69.8,59.6,66.3,55.0,40.5,68,60,43,30.12,30.04,0,0,0,0.00
2013-7-3,80.3,64.5,54.9,62.7,50.9,37.6,69,62,36,30.17,30.07,0,0,0,0.00
2013-7-4,72.4,61.9,54.2,58.8,49.2,34.4,69,63,45,30.13,30.04,0,0,0,0.00
2013-7-5,71.8,62.0,53.7,59.0,46.2,26.3,67,57,34,30.05,29.97,0,0,0,0.00
2013-7-6,80.1,64.4,54.5,64.0,44.8,18.8,66,50,24,29.99,29.88,0,0,0,0.00
2013-7-7,81.4,68.5,57.1,64.7,52.2,26.4,67,57,30,29.96,29.89,0,0,0,0.00
2013-7-8,81.1,65.2,56.8,64.9,47.8,27.4,66,54,32,30.11,29.96,0,0,0,0.00
2013-7-9,85.4,70.2,57.5,67.5,50.8,3.4,67,52,10,30.12,30.03,0,0,0,0.00
2013-7-10,73.1,64.7,56.4,60.2,52.0,35.2,67,63,44,30.06,29.97,0,0,0,0.00
2013-7-11,71.4,60.0,53.5,56.6,45.9,34.3,68,60,46,30.08,30.00,0,0,0,0.00
2013-7-12,67.4,57.5,49.2,55.2,42.0,22.0,67,57,30,30.12,30.02,0,0,0,0.00
2013-7-13,78.1,63.0,49.0,60.2,43.5,3.0,67,51,13,30.21,30.12,0,0,0,0.00
2013-7-14,81.6,66.1,50.8,62.2,45.4,-2.2,67,49,9,30.15,30.01,0,0,0,0.00
2013-7-15,81.7,65.3,50.6,61.7,48.0,20.7,67,54,29,30.06,29.92,0,0,0,0.00
2013-7-16,87.7,71.3,56.6,65.5,52.9,10.1,67,54,14,29.93,29.82,0,0,0,0.00
2013-7-17,68.1,64.1,59.5,55.5,39.7,11.1,66,44,14,30.18,29.90,0,0,0,0.04
2013-7-18,78.6,65.5,57.5,63.6,45.8,26.8,65,50,30,30.24,30.14,0,0,0,0.00
2013-7-19,80.5,65.4,54.5,64.8,43.2,16.0,64,46,20,30.18,30.06,0,0,0,0.00
2013-7-20,76.3,61.6,54.6,63.0,36.3,12.9,64,41,17,30.10,29.97,0,0,0,0.00
2013-7-21,76.0,62.7,55.8,63.0,33.1,-0.7,64,36,9,29.99,29.92,0,0,0,0.01
2013-7-22,77.9,63.7,56.4,64.2,34.2,2.2,64,37,10,30.08,29.95,0,0,0,0.00
2013-7-23,84.9,67.7,55.2,66.1,45.7,11.6,64,47,16,30.08,29.99,0,0,0,0.00
2013-7-24,84.8,69.5,56.6,64.3,49.1,-2.4,65,50,8,30.07,30.02,0,0,0,0.00
2013-7-25,83.7,69.2,57.5,64.5,53.3,38.4,66,58,35,30.11,30.05,0,0,0,0.00
2013-7-26,84.1,67.6,54.5,61.9,49.5,25.6,66,53,33,30.17,30.10,0,0,0,0.00
2013-7-27,79.1,65.8,52.5,60.5,49.8,14.4,66,57,21,30.16,30.01,0,0,0,0.00
2013-7-28,75.0,63.1,52.6,59.6,45.0,1.3,65,53,11,30.02,29.97,0,0,0,0.00
2013-7-29,73.5,62.8,56.9,60.0,43.6,26.1,64,50,30,30.02,29.97,0,0,0,0.00
2013-7-30,79.4,66.3,55.6,63.0,42.9,4.0,64,46,12,30.14,30.02,0,0,0,0.00
2013-7-31,71.9,63.0,56.2,58.2,36.7,15.3,63,39,17,30.13,29.99,0,0,0,0.00
2013-8-1,62.0,60.3,57.6,38.1,26.2,10.2,42,28,13,30.09,30.04,0,0,0,0.00
2013-8-2,59.4,58.4,57.2,33.6,-6.0,-23.2,39,12,3,30.14,30.08,0,0,0,0.46
2013-8-3,72.0,63.3,58.1,58.1,11.5,-22.7,62,23,3,30.14,30.07,0,0,0,0.01
2013-8-4,79.8,66.6,59.6,66.5,35.3,-10.3,65,36,8,30.08,29.97,0,0,0,0.00
2013-8-5,82.7,69.1,57.4,66.7,41.5,-22.9,64,44,3,30.03,29.95,0,0,0,0.00
2013-8-6,78.5,62.7,56.8,63.2,35.7,-22.8,66,42,3,30.01,29.95,0,0,0,0.00
2013-8-7,84.3,69.8,57.3,63.5,51.0,21.9,65,52,25,30.02,29.97,0,0,0,0.00
2013-8-8,81.6,67.3,57.5,65.3,48.8,16.0,66,53,19,30.05,29.97,0,0,0,0.00
2013-8-9,81.5,68.5,56.6,65.2,51.1,22.3,66,54,26,29.98,29.86,0,0,0,0.00
2013-8-10,79.4,68.1,61.9,65.7,19.9,-20.0,64,27,3,30.02,29.88,0,0,0,0.22
2013-8-11,70.4,63.7,59.0,57.4,12.2,-21.7,64,21,3,30.08,30.01,0,0,0,0.08
2013-8-12,76.4,64.9,57.9,63.2,39.4,10.0,65,43,14,30.09,30.02,0,0,0,0.00
2013-8-13,79.3,66.5,55.3,64.0,41.5,-24.0,65,45,3,30.11,29.94,0,0,0,0.00
2013-8-14,79.8,66.7,57.3,64.8,34.9,-22.9,64,38,3,29.99,29.92,0,0,0,0.02
2013-8-15,64.5,63.8,63.2,15.5,5.8,-2.0,15,10,7,29.96,29.94,0,0,0,0.00
2013-8-19,76.8,69.2,60.0,62.1,56.4,48.8,67,64,57,30.13,30.07,0,0,0,0.00
2013-8-20,76.0,64.5,55.0,62.1,48.0,20.2,67,56,25,30.18,30.09,0,0,0,0.00
2013-8-21,79.8,65.2,52.2,63.0,44.6,-6.4,67,50,8,30.11,29.96,0,0,0,0.00
2013-8-22,81.7,69.1,57.0,65.5,47.0,-2.9,66,49,8,29.97,29.82,0,0,0,0.00
2013-8-23,71.0,66.7,62.5,58.2,51.7,36.0,65,59,37,29.92,29.87,0,0,0,0.00
2013-8-24,68.9,62.4,57.0,54.3,27.7,-20.6,62,32,3,29.93,29.87,0,0,0,0.05
2013-8-25,73.1,61.6,52.6,60.2,29.8,-25.7,65,36,3,29.96,29.88,0,0,0,0.03
2013-8-26,73.4,63.1,57.3,60.3,17.4,-23.1,65,25,3,29.98,29.87,0,0,0,0.04
2013-8-27,78.9,66.0,58.9,63.9,23.2,-22.0,65,28,3,29.98,29.81,0,0,0,0.03
2013-8-28,75.7,66.7,60.2,61.5,16.8,-21.2,62,25,3,29.91,29.83,0,0,0,0.23
2013-8-29,69.5,64.9,62.6,16.5,-17.1,-19.6,15,3,3,30.04,29.88,0,0,0,1.11
2013-8-30,72.7,64.4,58.0,60.5,14.1,-21.8,67,27,3,30.18,30.04,0,0,0,0.01
2013-8-31,77.9,64.2,53.0,64.5,28.3,-25.6,66,35,3,30.10,29.86,0,0,0,0.00
2013-9-1,78.2,66.5,58.4,65.2,30.3,-22.4,67,37,3,29.91,29.82,0,0,0,0.00
2013-9-2,80.2,67.5,58.8,65.1,34.2,-21.6,66,39,3,29.96,29.88,0,0,0,0.00
2013-9-3,68.8,63.0,59.8,50.0,7.3,-21.5,54,17,3,30.05,29.95,0,0,0,0.17
2013-9-4,66.2,61.8,58.4,35.8,-3.7,-22.5,33,10,3,30.07,30.01,0,0,0,0.00
2013-9-5,68.7,62.2,58.2,42.9,-1.5,-22.6,41,12,3,30.06,29.94,0,0,0,0.43
2013-9-6,67.5,62.4,59.3,36.1,-7.8,-21.8,32,8,3,30.13,29.96,0,0,0,0.99
2013-9-7,71.1,63.4,59.6,54.5,5.0,-21.2,60,19,3,30.13,30.04,0,0,0,0.04
2013-9-8,75.7,64.5,57.9,64.0,17.4,-22.8,67,29,3,30.12,30.04,0,0,0,0.00
2013-9-9,75.3,64.1,56.1,62.8,18.9,-24.0,66,28,3,30.08,30.00,0,0,0,0.00
2013-9-10,74.8,63.9,56.8,63.0,18.5,-23.4,67,26,3,30.01,29.91,0,0,0,0.00
2013-9-11,61.4,60.7,60.2,31.8,-2.1,-20.9,34,11,3,29.93,29.92,0,0,0,0.00
2013-9-12,79.8,67.8,59.0,66.1,44.3,9.1,65,46,13,30.00,29.91,0,0,0,0.00
2013-9-13,64.0,61.8,58.2,30.1,12.1,-20.7,29,16,3,29.98,29.89,0,0,0,0.01
2013-9-14,67.0,63.5,61.2,43.1,8.7,-20.6,43,16,3,29.90,29.75,0,0,0,0.01
2013-9-15,64.7,62.1,60.2,28.3,-9.0,-21.1,26,7,3,29.83,29.72,0,0,0,0.31
2013-9-16,61.8,59.2,55.7,11.5,-20.0,-24.3,14,3,3,29.95,29.83,0,0,0,0.22
2013-9-17,58.2,56.4,54.6,24.9,-12.0,-25.0,28,7,3,29.95,29.88,0,0,0,0.05
2013-9-18,63.8,56.1,51.6,52.0,2.4,-25.7,68,22,3,30.09,29.95,0,0,0,0.20
2013-9-19,74.7,59.3,48.5,59.3,35.2,-0.4,67,44,12,30.06,29.78,0,0,0,0.00
2013-9-20,73.7,60.8,51.3,57.1,42.0,-17.5,70,56,4,29.78,29.60,0,0,0,0.06
2013-9-21,67.1,59.4,55.7,55.6,16.7,-24.3,68,33,3,29.72,29.66,0,0,0,0.01
2013-9-22,57.5,55.4,53.7,38.5,8.4,-25.6,49,19,3,29.74,29.59,0,0,0,0.33
2013-9-23,57.2,53.7,50.0,34.8,2.5,-28.2,44,19,3,29.98,29.74,0,0,0,0.47
2013-9-24,59.8,52.2,47.8,44.1,-13.2,-29.7,57,10,3,29.97,29.84,0,0,0,0.14
2013-9-25,55.0,51.3,47.4,31.3,-6.6,-28.5,41,14,3,30.03,29.86,0,0,0,0.00
2013-9-26,62.0,51.1,45.9,51.1,5.3,-30.5,68,25,3,30.14,30.03,0,0,0,0.01
2013-9-27,52.1,50.2,46.2,-0.3,-24.7,-29.8,14,4,3,30.13,29.85,0,0,0,0.11
2013-9-28,57.5,52.6,49.7,-22.9,-26.3,-28.3,4,3,3,29.85,29.37,0,0,0,1.05
2013-9-29,52.1,50.3,48.9,23.1,-10.5,-28.4,33,9,3,29.57,29.19,0,0,0,0.55
2013-9-30,52.5,49.2,47.2,38.3,7.5,-29.8,59,25,3,29.92,29.43,0,0,0,0.08
2013-10-1,53.0,48.7,45.0,40.5,11.1,-30.3,64,26,3,30.11,29.91,0,0,0,0.14
2013-10-2,51.4,49.1,47.2,15.6,-9.9,-30.0,26,9,3,30.17,30.06,0,0,0,0.12
2013-10-3,54.4,49.4,46.5,37.6,-3.5,-30.6,54,18,3,30.45,30.17,0,0,0,0.00
2013-10-4,62.7,50.1,41.9,51.6,15.5,-30.4,69,33,3,30.48,30.35,0,0,0,0.00
2013-10-5,66.7,53.0,44.4,53.2,29.3,2.6,68,43,15,30.36,30.14,0,0,0,0.00
2013-10-6,72.8,56.8,47.8,55.6,34.5,8.1,67,45,18,30.13,29.90,0,0,0,0.00
2013-10-7,54.9,51.0,49.2,40.3,-16.0,-28.7,58,8,3,30.01,29.90,0,0,0,0.85
2013-10-8,54.1,48.6,42.6,-9.9,-28.0,-32.4,8,3,3,30.07,29.96,0,0,0,0.26
2013-10-9,54.0,45.2,38.3,36.9,-9.0,-32.5,56,14,3,30.13,29.95,0,0,0,0.00
2013-10-10,55.9,49.4,44.2,44.9,2.8,-31.8,67,23,3,30.07,29.93,0,0,0,0.00
2013-10-11,48.1,47.8,47.6,-16.7,-27.8,-29.8,6,3,3,30.10,30.07,0,0,0,0.00
2013-10-15,59.0,48.0,41.2,48.1,0.8,-52.0,95,27,1,30.40,30.19,0,0,0,0.00
2013-10-16,50.0,47.8,44.3,47.5,-2.7,-50.4,95,23,1,30.20,30.14,0,0,0,0.00
2013-10-17,56.4,49.0,45.8,41.8,-0.7,-49.7,58,17,1,30.27,30.19,0,0,0,0.00
2013-10-18,59.0,47.9,41.9,52.8,-3.7,-51.0,95,26,1,30.25,30.15,0,0,0,0.01
2013-10-19,50.1,45.5,40.0,46.2,-7.5,-51.4,95,20,1,30.19,30.14,0,0,0,0.01
2013-10-20,48.1,46.4,44.9,-8.4,-32.9,-50.2,9,3,1,30.20,30.15,0,0,0,0.01
2013-10-21,49.2,47.2,45.3,-1.4,-30.2,-50.4,12,4,1,30.17,30.10,0,0,0,0.01
2013-10-22,53.8,47.2,41.5,19.3,-20.6,-33.8,26,6,3,30.12,30.03,0,0,0,0.01
2013-10-23,61.3,48.2,39.8,33.3,-11.9,-34.6,35,10,3,30.04,29.98,0,0,0,0.00
2013-10-24,58.8,48.3,41.5,40.5,-10.2,-33.2,51,13,3,30.12,30.02,0,0,0,0.02
2013-10-25,49.6,47.6,46.3,3.1,-25.6,-30.7,16,4,3,30.31,30.12,0,0,0,0.02
2013-10-26,49.1,47.3,46.1,16.2,-11.6,-30.9,27,11,3,30.33,30.19,0,0,0,0.00
2013-10-27,50.9,46.7,43.3,0.8,-24.8,-32.8,15,5,3,30.19,29.90,0,0,0,0.20
2013-10-28,55.6,45.2,39.2,44.4,-3.0,-34.5,67,26,3,29.95,29.87,0,0,0,0.01
2013-10-29,54.1,41.7,34.3,42.6,16.6,-10.0,70,40,12,30.03,29.94,0,0,0,0.00
2013-10-30,38.0,37.0,36.7,27.7,21.9,-1.5,69,58,19,30.06,30.02,51,38,0,0.00
2013-10-31,49.2,48.3,47.4,47.8,46.9,46.0,95,95,95,30.28,30.26,0,0,0,0.00
2013-11-1,58.1,51.1,46.6,54.7,34.1,-43.4,95,66,1,30.29,29.84,0,0,0,0.01
2013-11-2,51.2,45.9,41.1,25.4,-26.6,-34.3,37,5,3,29.88,29.49,5,0,0,1.47
2013-11-3,48.6,39.6,33.5,26.4,-24.7,-37.4,44,7,3,30.10,29.88,7,0,0,0.34
2013-11-4,47.1,37.7,29.8,36.9,-3.2,-38.3,70,25,3,30.18,30.06,3,0,0,0.07
2013-11-5,47.8,43.2,39.0,-20.1,-32.3,-35.5,7,3,3,30.25,30.02,5,1,0,0.31
2013-11-6,49.6,44.0,39.0,19.8,-17.3,-35.8,36,10,3,30.31,30.03,5,1,0,0.06
2013-11-7,47.4,45.5,43.7,1.2,-29.9,-32.5,16,3,3,30.03,29.71,9,2,0,1.15
2013-11-8,52.7,45.6,41.4,41.2,-11.7,-31.9,66,15,3,30.16,29.97,3,0,0,0.01
2013-11-9,50.5,43.5,36.8,41.6,0.7,-29.9,72,24,4,30.15,30.06,5,1,0,0.07
2013-11-10,48.6,45.0,42.8,-2.6,-28.4,-33.2,12,4,3,30.15,30.09,2,0,0,0.08
2013-11-11,59.7,49.7,42.1,48.9,25.3,-32.9,71,48,3,30.15,30.00,8,2,0,0.00
2013-11-12,54.9,51.7,48.2,42.7,3.3,-29.2,70,24,3,30.36,30.03,8,1,0,0.19
2013-11-13,54.5,50.5,47.3,43.8,6.1,-30.1,67,23,3,30.43,30.31,6,1,0,0.06
2013-11-14,48.1,45.3,40.7,-2.1,-27.3,-34.4,14,4,3,30.31,30.05,2,0,0,0.08
2013-11-15,43.8,42.5,41.0,-1.9,-32.8,-34.4,16,3,3,30.05,29.32,10,2,0,0.61
2013-11-16,65.0,45.6,37.0,53.5,0.2,-37.1,72,25,3,29.75,29.34,7,1,0,0.33
2013-11-17,48.8,44.4,38.3,33.4,6.9,-35.6,58,27,3,29.90,29.76,10,3,0,0.00
2013-11-18,48.6,46.8,44.5,11.1,-24.9,-31.7,24,5,3,29.90,29.56,6,1,0,0.57
2013-11-19,50.5,40.8,32.7,31.9,2.6,-33.9,77,37,3,30.05,29.53,7,1,0,0.41
2013-11-20,44.0,31.1,25.2,33.9,15.0,-7.4,77,54,20,30.49,30.05,3,0,0,0.00
2013-11-21,43.5,29.9,24.1,33.6,12.9,-5.4,76,51,25,30.65,30.48,6,1,0,0.01
2013-11-22,47.2,33.8,26.2,34.9,23.7,4.9,77,67,39,30.63,30.44,7,1,0,0.00
2013-11-23,53.2,39.2,33.3,35.5,28.3,22.4,74,65,42,30.44,30.18,7,2,0,0.00
2013-11-24,52.5,39.0,32.4,40.3,27.9,9.0,75,65,31,30.25,30.15,3,0,0,0.00
2013-11-25,59.3,42.4,36.1,40.6,32.9,22.6,75,69,45,30.31,30.24,3,0,0,0.00
2013-11-26,58.5,43.1,34.9,38.6,33.1,27.7,75,69,39,30.25,30.10,3,0,0,0.00
2013-11-27,56.1,45.4,39.4,42.8,36.6,31.5,74,71,55,30.10,29.95,5,1,0,0.00
2013-11-28,58.6,43.2,37.3,41.0,33.0,26.8,74,68,47,30.17,30.02,3,0,0,0.00
2013-11-29,45.6,43.0,38.4,34.5,7.2,-32.6,74,36,3,30.31,30.17,2,0,0,0.01
2013-11-30,47.1,45.2,43.3,20.7,-22.5,-32.8,35,7,3,30.32,30.09,3,0,0,0.21
2013-12-1,50.4,47.2,36.3,-2.3,-26.4,-30.3,14,4,3,30.09,29.74,12,2,0,1.08
2013-12-2,36.5,33.7,32.9,-7.5,-28.5,-39.0,15,6,3,30.03,29.81,3,0,0,0.25
2013-12-3,33.8,31.8,27.6,8.0,-17.7,-35.0,39,13,4,30.29,30.03,2,0,1,0.08
2013-12-4,34.9,26.1,21.8,28.4,6.8,-11.9,78,47,16,30.33,30.27,3,0,0,0.04
2013-12-5,30.1,24.0,19.5,24.2,13.9,1.2,80,66,39,30.30,30.17,5,1,0,0.00
2013-12-6,29.3,22.0,16.2,15.1,11.8,8.7,73,65,52,30.21,30.13,10,4,0,0.00
2013-12-7,29.6,17.2,12.4,13.6,8.5,6.2,80,69,44,30.39,30.20,5,1,0,0.01
2013-12-8,32.3,19.5,12.5,17.5,12.4,7.1,80,74,50,30.54,30.38,2,0,0,0.00
2013-12-9,29.5,24.9,16.1,23.2,16.6,8.1,78,71,46,30.55,30.46,2,0,0,0.00
2013-12-10,35.2,31.9,28.4,24.5,11.1,-4.0,65,43,22,30.47,30.40,2,0,0,0.02
2013-12-11,39.8,33.3,28.3,32.2,20.3,5.7,77,60,36,30.40,30.15,3,0,0,0.06
2013-12-12,41.0,37.6,34.1,33.6,11.1,-35.3,76,48,3,30.15,30.04,6,1,0,0.21
2013-12-13,44.5,41.9,39.6,-32.0,-33.8,-35.4,3,3,3,30.41,30.13,2,0,0,0.19
2013-12-14,45.5,43.1,38.8,22.5,-17.5,-35.9,40,11,3,30.43,30.32,6,1,0,0.00
2013-12-15,47.2,45.4,41.5,17.0,-27.0,-32.9,32,5,3,30.44,30.32,5,0,0,0.11
2013-12-16,48.7,40.5,33.0,35.6,-10.3,-35.5,65,16,3,30.48,30.25,2,0,0,0.00
2013-12-17,41.5,36.2,32.0,-15.8,-29.5,-38.2,11,5,3,30.25,30.10,5,0,0,0.02
2013-12-18,42.5,37.4,29.1,34.2,-9.9,-35.4,76,25,3,30.13,30.01,3,0,0,0.01
2013-12-19,36.1,29.6,26.2,26.5,2.6,-20.5,77,37,8,30.32,30.12,2,0,0,0.00
2013-12-20,35.5,31.6,27.5,21.5,-11.3,-33.1,70,20,4,30.18,29.71,3,0,0,0.53
2013-12-21,38.7,36.8,34.5,-26.4,-31.5,-37.9,6,4,3,30.16,29.83,2,0,0,0.84
2013-12-22,44.4,41.9,38.2,-30.9,-33.7,-36.0,4,3,3,30.29,30.16,2,0,0,0.89
2013-12-23,47.6,44.3,39.7,26.2,-13.8,-32.0,56,15,3,30.51,30.12,9,2,0,0.39
2013-12-24,45.4,38.4,30.8,38.7,6.9,-21.4,78,31,6,30.61,30.51,2,0,0,0.03
2013-12-25,44.6,34.4,28.9,38.8,6.9,-10.1,80,36,16,30.52,30.38,3,0,0,0.01
2013-12-26,50.9,38.7,33.2,42.8,17.9,-11.5,80,47,11,30.38,30.19,2,0,0,0.00
2013-12-27,45.7,40.9,36.7,39.2,-9.7,-33.7,78,16,3,30.36,30.10,8,0,0,0.11
2013-12-28,48.2,41.0,36.1,18.8,-20.0,-34.6,39,9,3,30.51,30.35,3,0,0,0.00
2013-12-29,39.8,36.9,33.5,-17.8,-29.1,-37.2,9,5,3,30.47,30.30,3,0,0,0.01
2013-12-30,42.4,39.3,35.7,4.5,-24.8,-35.7,21,7,3,30.30,30.11,7,1,0,0.02
2013-12-31,45.1,42.4,38.6,20.8,2.7,-9.9,39,20,11,30.37,30.18,6,0,0,0.02
2014-1-1,45.4,39.2,33.9,37.5,-0.1,-30.9,76,24,4,30.40,30.23,3,0,0,0.00
2014-1-2,47.6,43.6,39.5,41.5,-3.5,-33.5,79,23,3,30.23,29.89,8,1,0,0.86